sensor_id;sensor_type;location;lat;lon;timestamp;temperature;humidity
1135;DHT22;556;53.550;10.048;2022-07-23T00:01:26;20.60;44.70
1135;DHT22;556;53.550;10.048;2022-07-23T00:03:54;20.50;44.70
1135;DHT22;556;53.550;10.048;2022-07-23T00:06:22;20.50;44.80
1135;DHT22;556;53.550;10.048;2022-07-23T00:08:51;20.50;44.40
1135;DHT22;556;53.550;10.048;2022-07-23T00:11:19;20.50;44.90
1135;DHT22;556;53.550;10.048;2022-07-23T00:13:48;20.50;44.80
1135;DHT22;556;53.550;10.048;2022-07-23T00:16:15;20.50;44.70
1135;DHT22;556;53.550;10.048;2022-07-23T00:18:42;20.50;44.70
1135;DHT22;556;53.550;10.048;2022-07-23T00:21:09;20.50;44.60
1135;DHT22;556;53.550;10.048;2022-07-23T00:23:36;20.50;44.60
1135;DHT22;556;53.550;10.048;2022-07-23T00:26:05;20.50;44.60
1135;DHT22;556;53.550;10.048;2022-07-23T00:28:33;20.50;44.60
1135;DHT22;556;53.550;10.048;2022-07-23T00:31:01;20.40;44.50
1135;DHT22;556;53.550;10.048;2022-07-23T00:33:28;20.50;44.50
1135;DHT22;556;53.550;10.048;2022-07-23T00:35:55;20.50;44.60
1135;DHT22;556;53.550;10.048;2022-07-23T00:38:22;20.40;44.70
1135;DHT22;556;53.550;10.048;2022-07-23T00:40:49;20.40;44.70
1135;DHT22;556;53.550;10.048;2022-07-23T00:43:19;20.40;45.20
1135;DHT22;556;53.550;10.048;2022-07-23T00:45:47;20.40;44.90
1135;DHT22;556;53.550;10.048;2022-07-23T00:48:14;20.40;44.90
1135;DHT22;556;53.550;10.048;2022-07-23T00:50:42;20.40;45.00
1135;DHT22;556;53.550;10.048;2022-07-23T00:53:10;20.40;45.60
1135;DHT22;556;53.550;10.048;2022-07-23T00:55:38;20.40;45.10
1135;DHT22;556;53.550;10.048;2022-07-23T00:58:06;20.20;44.70
1135;DHT22;556;53.550;10.048;2022-07-23T01:00:34;20.20;45.20
1135;DHT22;556;53.550;10.048;2022-07-23T01:03:01;20.20;44.80
1135;DHT22;556;53.550;10.048;2022-07-23T01:05:29;20.10;44.80
1135;DHT22;556;53.550;10.048;2022-07-23T01:07:57;20.10;45.20
1135;DHT22;556;53.550;10.048;2022-07-23T01:10:25;20.10;44.80
1135;DHT22;556;53.550;10.048;2022-07-23T01:12:59;20.10;45.30
1135;DHT22;556;53.550;10.048;2022-07-23T01:15:27;20.10;45.30
1135;DHT22;556;53.550;10.048;2022-07-23T01:17:56;20.00;44.90
1135;DHT22;556;53.550;10.048;2022-07-23T01:20:23;19.90;45.00
1135;DHT22;556;53.550;10.048;2022-07-23T01:22:52;19.90;45.40
1135;DHT22;556;53.550;10.048;2022-07-23T01:25:20;19.90;45.50
1135;DHT22;556;53.550;10.048;2022-07-23T01:27:57;19.80;45.10
1135;DHT22;556;53.550;10.048;2022-07-23T01:30:24;19.80;45.60
1135;DHT22;556;53.550;10.048;2022-07-23T01:32:51;19.80;45.60
1135;DHT22;556;53.550;10.048;2022-07-23T01:35:19;19.80;45.30
1135;DHT22;556;53.550;10.048;2022-07-23T01:37:47;19.80;45.70
1135;DHT22;556;53.550;10.048;2022-07-23T01:40:17;19.80;45.70
1135;DHT22;556;53.550;10.048;2022-07-23T01:42:45;19.80;45.70
1135;DHT22;556;53.550;10.048;2022-07-23T01:45:14;19.90;45.80
1135;DHT22;556;53.550;10.048;2022-07-23T01:47:46;19.80;45.80
1135;DHT22;556;53.550;10.048;2022-07-23T01:50:13;19.90;45.90
1135;DHT22;556;53.550;10.048;2022-07-23T01:52:44;20.00;45.90
1135;DHT22;556;53.550;10.048;2022-07-23T01:55:11;20.00;46.00
1135;DHT22;556;53.550;10.048;2022-07-23T01:57:42;20.00;46.00
1135;DHT22;556;53.550;10.048;2022-07-23T02:00:12;20.00;46.10
1135;DHT22;556;53.550;10.048;2022-07-23T02:02:40;20.00;46.10
1135;DHT22;556;53.550;10.048;2022-07-23T02:05:08;19.90;46.10
1135;DHT22;556;53.550;10.048;2022-07-23T02:07:36;20.00;46.30
1135;DHT22;556;53.550;10.048;2022-07-23T02:10:04;19.90;46.20
1135;DHT22;556;53.550;10.048;2022-07-23T02:12:32;19.90;46.30
1135;DHT22;556;53.550;10.048;2022-07-23T02:15:01;20.00;46.40
1135;DHT22;556;53.550;10.048;2022-07-23T02:17:28;19.90;46.40
1135;DHT22;556;53.550;10.048;2022-07-23T02:19:55;19.90;46.40
1135;DHT22;556;53.550;10.048;2022-07-23T02:22:23;19.90;46.40
1135;DHT22;556;53.550;10.048;2022-07-23T02:24:50;19.90;46.40
1135;DHT22;556;53.550;10.048;2022-07-23T02:27:17;19.90;46.50
1135;DHT22;556;53.550;10.048;2022-07-23T02:29:44;19.90;46.50
1135;DHT22;556;53.550;10.048;2022-07-23T02:32:14;19.90;46.50
1135;DHT22;556;53.550;10.048;2022-07-23T02:34:43;19.80;46.40
1135;DHT22;556;53.550;10.048;2022-07-23T02:37:11;19.80;46.60
1135;DHT22;556;53.550;10.048;2022-07-23T02:39:38;19.70;46.60
1135;DHT22;556;53.550;10.048;2022-07-23T02:42:06;19.70;46.60
1135;DHT22;556;53.550;10.048;2022-07-23T02:44:34;19.60;46.70
1135;DHT22;556;53.550;10.048;2022-07-23T02:47:01;19.60;46.80
1135;DHT22;556;53.550;10.048;2022-07-23T02:49:30;19.60;46.80
1135;DHT22;556;53.550;10.048;2022-07-23T02:51:59;19.50;46.90
1135;DHT22;556;53.550;10.048;2022-07-23T02:54:26;19.40;46.80
1135;DHT22;556;53.550;10.048;2022-07-23T02:56:54;19.30;46.80
1135;DHT22;556;53.550;10.048;2022-07-23T02:59:21;19.20;46.40
1135;DHT22;556;53.550;10.048;2022-07-23T03:01:48;19.20;47.00
1135;DHT22;556;53.550;10.048;2022-07-23T03:04:17;19.10;46.90
1135;DHT22;556;53.550;10.048;2022-07-23T03:06:46;19.10;47.10
1135;DHT22;556;53.550;10.048;2022-07-23T03:09:13;19.00;47.10
1135;DHT22;556;53.550;10.048;2022-07-23T03:11:40;19.00;47.20
1135;DHT22;556;53.550;10.048;2022-07-23T03:14:07;19.00;47.20
1135;DHT22;556;53.550;10.048;2022-07-23T03:16:36;19.00;47.30
1135;DHT22;556;53.550;10.048;2022-07-23T03:19:03;19.00;47.30
1135;DHT22;556;53.550;10.048;2022-07-23T03:21:30;19.10;47.20
1135;DHT22;556;53.550;10.048;2022-07-23T03:23:59;19.00;46.80
1135;DHT22;556;53.550;10.048;2022-07-23T03:26:27;19.10;47.30
1135;DHT22;556;53.550;10.048;2022-07-23T03:28:54;19.10;47.30
1135;DHT22;556;53.550;10.048;2022-07-23T03:31:21;19.10;47.30
1135;DHT22;556;53.550;10.048;2022-07-23T03:33:49;19.10;46.90
1135;DHT22;556;53.550;10.048;2022-07-23T03:36:16;19.20;47.10
1135;DHT22;556;53.550;10.048;2022-07-23T03:38:45;19.20;47.20
1135;DHT22;556;53.550;10.048;2022-07-23T03:41:13;19.20;47.60
1135;DHT22;556;53.550;10.048;2022-07-23T03:43:40;19.10;47.20
1135;DHT22;556;53.550;10.048;2022-07-23T03:46:07;19.20;47.70
1135;DHT22;556;53.550;10.048;2022-07-23T03:48:35;19.20;47.30
1135;DHT22;556;53.550;10.048;2022-07-23T03:51:03;19.20;47.80
1135;DHT22;556;53.550;10.048;2022-07-23T03:53:30;19.20;47.40
1135;DHT22;556;53.550;10.048;2022-07-23T03:58:26;19.20;47.40
1135;DHT22;556;53.550;10.048;2022-07-23T04:00:54;19.30;47.90
1135;DHT22;556;53.550;10.048;2022-07-23T04:03:21;19.30;47.50
1135;DHT22;556;53.550;10.048;2022-07-23T04:05:48;19.40;47.90
1135;DHT22;556;53.550;10.048;2022-07-23T04:08:15;19.40;47.40
1135;DHT22;556;53.550;10.048;2022-07-23T04:10:49;19.50;47.80
1135;DHT22;556;53.550;10.048;2022-07-23T04:13:17;19.60;47.40
1135;DHT22;556;53.550;10.048;2022-07-23T04:15:45;19.70;47.90
1135;DHT22;556;53.550;10.048;2022-07-23T04:18:12;19.80;47.80
1135;DHT22;556;53.550;10.048;2022-07-23T04:20:56;20.00;47.30
1135;DHT22;556;53.550;10.048;2022-07-23T04:23:23;20.20;47.20
1135;DHT22;556;53.550;10.048;2022-07-23T04:25:50;20.30;47.50
1135;DHT22;556;53.550;10.048;2022-07-23T04:28:17;20.40;47.00
1135;DHT22;556;53.550;10.048;2022-07-23T04:30:46;20.50;47.10
1135;DHT22;556;53.550;10.048;2022-07-23T04:33:15;20.50;47.50
1135;DHT22;556;53.550;10.048;2022-07-23T04:35:42;20.40;47.40
1135;DHT22;556;53.550;10.048;2022-07-23T04:38:18;20.40;47.50
1135;DHT22;556;53.550;10.048;2022-07-23T04:40:46;20.30;47.20
1135;DHT22;556;53.550;10.048;2022-07-23T04:43:13;20.20;47.70
1135;DHT22;556;53.550;10.048;2022-07-23T04:45:46;20.10;47.80
1135;DHT22;556;53.550;10.048;2022-07-23T04:48:14;20.10;47.90
1135;DHT22;556;53.550;10.048;2022-07-23T04:50:42;20.00;47.90
1135;DHT22;556;53.550;10.048;2022-07-23T04:53:17;20.00;47.60
1135;DHT22;556;53.550;10.048;2022-07-23T04:55:47;19.90;47.60
1135;DHT22;556;53.550;10.048;2022-07-23T04:58:14;19.80;47.70
1135;DHT22;556;53.550;10.048;2022-07-23T05:00:42;19.80;47.70
1135;DHT22;556;53.550;10.048;2022-07-23T05:03:11;19.80;48.20
1135;DHT22;556;53.550;10.048;2022-07-23T05:05:38;19.80;47.90
1135;DHT22;556;53.550;10.048;2022-07-23T05:08:10;19.80;48.40
1135;DHT22;556;53.550;10.048;2022-07-23T05:10:39;19.80;48.30
1135;DHT22;556;53.550;10.048;2022-07-23T05:13:06;19.90;48.30
1135;DHT22;556;53.550;10.048;2022-07-23T05:15:33;19.80;47.90
1135;DHT22;556;53.550;10.048;2022-07-23T05:18:01;19.80;48.30
1135;DHT22;556;53.550;10.048;2022-07-23T05:20:30;19.80;48.00
1135;DHT22;556;53.550;10.048;2022-07-23T05:22:57;19.80;48.40
1135;DHT22;556;53.550;10.048;2022-07-23T05:25:24;19.80;47.80
1135;DHT22;556;53.550;10.048;2022-07-23T05:27:51;19.90;48.20
1135;DHT22;556;53.550;10.048;2022-07-23T05:30:19;19.90;47.80
1135;DHT22;556;53.550;10.048;2022-07-23T05:32:48;19.90;48.30
1135;DHT22;556;53.550;10.048;2022-07-23T05:35:17;20.00;48.10
1135;DHT22;556;53.550;10.048;2022-07-23T05:37:56;20.10;48.10
1135;DHT22;556;53.550;10.048;2022-07-23T05:40:23;20.20;47.50
1135;DHT22;556;53.550;10.048;2022-07-23T05:42:50;20.20;48.50
1135;DHT22;556;53.550;10.048;2022-07-23T05:45:18;20.30;47.50
1135;DHT22;556;53.550;10.048;2022-07-23T05:47:46;20.40;47.40
1135;DHT22;556;53.550;10.048;2022-07-23T05:50:21;20.40;47.80
1135;DHT22;556;53.550;10.048;2022-07-23T05:52:54;20.50;48.20
1135;DHT22;556;53.550;10.048;2022-07-23T05:55:28;20.60;47.20
1135;DHT22;556;53.550;10.048;2022-07-23T05:57:58;20.70;47.50
1135;DHT22;556;53.550;10.048;2022-07-23T06:00:27;20.70;47.40
1135;DHT22;556;53.550;10.048;2022-07-23T06:02:55;20.80;47.90
1135;DHT22;556;53.550;10.048;2022-07-23T06:05:24;20.80;47.90
1135;DHT22;556;53.550;10.048;2022-07-23T06:07:53;20.80;47.30
1135;DHT22;556;53.550;10.048;2022-07-23T06:10:20;20.80;47.00
1135;DHT22;556;53.550;10.048;2022-07-23T06:12:49;20.70;47.30
1135;DHT22;556;53.550;10.048;2022-07-23T06:15:17;20.70;46.80
1135;DHT22;556;53.550;10.048;2022-07-23T06:17:46;20.80;47.30
1135;DHT22;556;53.550;10.048;2022-07-23T06:20:13;20.90;47.30
1135;DHT22;556;53.550;10.048;2022-07-23T06:22:41;21.00;46.80
1135;DHT22;556;53.550;10.048;2022-07-23T06:25:09;21.00;46.70
1135;DHT22;556;53.550;10.048;2022-07-23T06:27:36;21.00;46.70
1135;DHT22;556;53.550;10.048;2022-07-23T06:30:05;21.10;47.20
1135;DHT22;556;53.550;10.048;2022-07-23T06:32:34;21.20;47.20
1135;DHT22;556;53.550;10.048;2022-07-23T06:35:01;21.20;46.70
1135;DHT22;556;53.550;10.048;2022-07-23T06:37:28;21.20;47.10
1135;DHT22;556;53.550;10.048;2022-07-23T06:39:55;21.40;46.70
1135;DHT22;556;53.550;10.048;2022-07-23T06:42:22;21.40;47.20
1135;DHT22;556;53.550;10.048;2022-07-23T06:44:56;21.50;46.70
1135;DHT22;556;53.550;10.048;2022-07-23T06:47:25;21.50;47.10
1135;DHT22;556;53.550;10.048;2022-07-23T06:49:52;21.60;47.10
1135;DHT22;556;53.550;10.048;2022-07-23T06:52:19;21.60;46.50
1135;DHT22;556;53.550;10.048;2022-07-23T06:54:46;21.50;47.10
1135;DHT22;556;53.550;10.048;2022-07-23T06:57:13;21.50;47.20
1135;DHT22;556;53.550;10.048;2022-07-23T06:59:41;21.50;46.80
1135;DHT22;556;53.550;10.048;2022-07-23T07:02:09;21.50;46.70
1135;DHT22;556;53.550;10.048;2022-07-23T07:04:38;21.40;47.10
1135;DHT22;556;53.550;10.048;2022-07-23T07:07:05;21.50;47.20
1135;DHT22;556;53.550;10.048;2022-07-23T07:09:32;21.40;47.10
1135;DHT22;556;53.550;10.048;2022-07-23T07:11:59;21.50;46.70
1135;DHT22;556;53.550;10.048;2022-07-23T07:14:26;21.50;47.10
1135;DHT22;556;53.550;10.048;2022-07-23T07:16:53;21.60;47.00
1135;DHT22;556;53.550;10.048;2022-07-23T07:19:20;21.80;46.30
1135;DHT22;556;53.550;10.048;2022-07-23T07:21:49;21.90;46.80
1135;DHT22;556;53.550;10.048;2022-07-23T07:24:16;21.90;46.70
1135;DHT22;556;53.550;10.048;2022-07-23T07:26:43;22.00;46.20
1135;DHT22;556;53.550;10.048;2022-07-23T07:29:10;22.10;46.50
1135;DHT22;556;53.550;10.048;2022-07-23T07:31:37;22.20;46.50
1135;DHT22;556;53.550;10.048;2022-07-23T07:36:32;21.30;46.30
1135;DHT22;556;53.550;10.048;2022-07-23T07:39:00;21.30;47.50
1135;DHT22;556;53.550;10.048;2022-07-23T07:41:27;20.90;47.50
1135;DHT22;556;53.550;10.048;2022-07-23T07:43:54;20.70;47.80
1135;DHT22;556;53.550;10.048;2022-07-23T07:46:21;20.90;47.10
1135;DHT22;556;53.550;10.048;2022-07-23T07:48:50;21.00;47.50
1135;DHT22;556;53.550;10.048;2022-07-23T07:51:17;21.10;47.40
1135;DHT22;556;53.550;10.048;2022-07-23T07:53:44;21.30;47.30
1135;DHT22;556;53.550;10.048;2022-07-23T07:56:12;21.40;47.10
1135;DHT22;556;53.550;10.048;2022-07-23T07:58:39;21.60;47.10
1135;DHT22;556;53.550;10.048;2022-07-23T08:01:06;21.70;46.60
1135;DHT22;556;53.550;10.048;2022-07-23T08:03:34;21.80;46.50
1135;DHT22;556;53.550;10.048;2022-07-23T08:06:01;21.80;46.90
1135;DHT22;556;53.550;10.048;2022-07-23T08:08:28;22.20;46.40
1135;DHT22;556;53.550;10.048;2022-07-23T08:10:55;22.40;46.60
1135;DHT22;556;53.550;10.048;2022-07-23T08:13:23;22.50;46.30
1135;DHT22;556;53.550;10.048;2022-07-23T08:15:50;22.50;46.20
1135;DHT22;556;53.550;10.048;2022-07-23T08:18:21;22.60;45.60
1135;DHT22;556;53.550;10.048;2022-07-23T08:20:48;22.60;46.60
1135;DHT22;556;53.550;10.048;2022-07-23T08:23:15;22.60;45.90
1135;DHT22;556;53.550;10.048;2022-07-23T08:25:46;22.60;45.80
1135;DHT22;556;53.550;10.048;2022-07-23T08:28:14;22.50;45.90
1135;DHT22;556;53.550;10.048;2022-07-23T08:30:44;22.30;45.50
1135;DHT22;556;53.550;10.048;2022-07-23T08:33:13;22.10;45.60
1135;DHT22;556;53.550;10.048;2022-07-23T08:35:42;21.50;46.40
1135;DHT22;556;53.550;10.048;2022-07-23T08:38:14;20.40;47.20
1135;DHT22;556;53.550;10.048;2022-07-23T08:40:43;20.30;47.80
1135;DHT22;556;53.550;10.048;2022-07-23T08:43:12;20.00;48.10
1135;DHT22;556;53.550;10.048;2022-07-23T08:45:41;19.80;47.90
1135;DHT22;556;53.550;10.048;2022-07-23T08:48:12;19.80;48.30
1135;DHT22;556;53.550;10.048;2022-07-23T08:50:42;20.20;48.00
1135;DHT22;556;53.550;10.048;2022-07-23T08:53:10;20.50;47.50
1135;DHT22;556;53.550;10.048;2022-07-23T08:55:37;21.00;47.10
1135;DHT22;556;53.550;10.048;2022-07-23T08:58:05;21.50;46.70
1135;DHT22;556;53.550;10.048;2022-07-23T09:00:32;22.10;46.30
1135;DHT22;556;53.550;10.048;2022-07-23T09:03:00;22.50;45.30
1135;DHT22;556;53.550;10.048;2022-07-23T09:05:28;22.70;45.80
1135;DHT22;556;53.550;10.048;2022-07-23T09:08:06;23.00;45.80
1135;DHT22;556;53.550;10.048;2022-07-23T09:10:44;23.30;45.70
1135;DHT22;556;53.550;10.048;2022-07-23T09:13:28;23.60;45.40
1135;DHT22;556;53.550;10.048;2022-07-23T09:15:57;23.80;45.10
1135;DHT22;556;53.550;10.048;2022-07-23T09:18:36;23.80;45.10
1135;DHT22;556;53.550;10.048;2022-07-23T09:21:11;24.00;44.80
1135;DHT22;556;53.550;10.048;2022-07-23T09:23:40;24.10;44.50
1135;DHT22;556;53.550;10.048;2022-07-23T09:26:18;24.30;44.90
1135;DHT22;556;53.550;10.048;2022-07-23T09:28:55;24.40;44.10
1135;DHT22;556;53.550;10.048;2022-07-23T09:31:24;24.50;43.90
1135;DHT22;556;53.550;10.048;2022-07-23T09:33:51;24.50;43.90
1135;DHT22;556;53.550;10.048;2022-07-23T09:36:29;24.50;43.80
1135;DHT22;556;53.550;10.048;2022-07-23T09:38:56;24.60;43.60
1135;DHT22;556;53.550;10.048;2022-07-23T09:41:23;24.70;43.50
1135;DHT22;556;53.550;10.048;2022-07-23T09:43:56;24.90;43.50
1135;DHT22;556;53.550;10.048;2022-07-23T09:46:27;24.80;42.80
1135;DHT22;556;53.550;10.048;2022-07-23T09:48:55;24.80;43.20
1135;DHT22;556;53.550;10.048;2022-07-23T09:51:23;24.80;42.50
1135;DHT22;556;53.550;10.048;2022-07-23T09:54:02;24.70;43.00
1135;DHT22;556;53.550;10.048;2022-07-23T09:56:29;24.50;42.90
1135;DHT22;556;53.550;10.048;2022-07-23T09:58:58;24.30;42.50
1135;DHT22;556;53.550;10.048;2022-07-23T10:01:31;24.10;42.90
1135;DHT22;556;53.550;10.048;2022-07-23T10:03:59;24.00;43.00
1135;DHT22;556;53.550;10.048;2022-07-23T10:06:47;23.80;42.80
1135;DHT22;556;53.550;10.048;2022-07-23T10:09:36;23.70;42.90
1135;DHT22;556;53.550;10.048;2022-07-23T10:12:29;23.90;42.80
1135;DHT22;556;53.550;10.048;2022-07-23T10:15:15;24.10;42.60
1135;DHT22;556;53.550;10.048;2022-07-23T10:17:42;24.00;42.50
1135;DHT22;556;53.550;10.048;2022-07-23T10:20:10;23.80;42.60
1135;DHT22;556;53.550;10.048;2022-07-23T10:22:38;23.60;42.70
1135;DHT22;556;53.550;10.048;2022-07-23T10:25:14;23.60;42.80
1135;DHT22;556;53.550;10.048;2022-07-23T10:27:58;23.60;41.90
1135;DHT22;556;53.550;10.048;2022-07-23T10:30:34;23.60;42.40
1135;DHT22;556;53.550;10.048;2022-07-23T10:33:15;23.80;41.70
1135;DHT22;556;53.550;10.048;2022-07-23T10:35:54;23.90;42.00
1135;DHT22;556;53.550;10.048;2022-07-23T10:38:25;24.10;41.80
1135;DHT22;556;53.550;10.048;2022-07-23T10:41:01;24.30;41.60
1135;DHT22;556;53.550;10.048;2022-07-23T10:43:29;24.40;40.90
1135;DHT22;556;53.550;10.048;2022-07-23T10:46:22;24.50;41.30
1135;DHT22;556;53.550;10.048;2022-07-23T10:49:23;24.70;41.10
1135;DHT22;556;53.550;10.048;2022-07-23T10:52:25;25.10;40.50
1135;DHT22;556;53.550;10.048;2022-07-23T10:54:54;25.30;41.20
1135;DHT22;556;53.550;10.048;2022-07-23T10:57:25;25.40;40.60
1135;DHT22;556;53.550;10.048;2022-07-23T11:00:15;25.60;40.40
1135;DHT22;556;53.550;10.048;2022-07-23T11:02:45;25.90;40.00
1135;DHT22;556;53.550;10.048;2022-07-23T11:05:14;26.00;39.00
1135;DHT22;556;53.550;10.048;2022-07-23T11:08:12;25.90;39.50
1135;DHT22;556;53.550;10.048;2022-07-23T11:10:43;25.80;39.70
1135;DHT22;556;53.550;10.048;2022-07-23T11:13:32;25.90;39.80
1135;DHT22;556;53.550;10.048;2022-07-23T11:16:16;25.70;39.70
1135;DHT22;556;53.550;10.048;2022-07-23T11:19:10;25.50;40.00
1135;DHT22;556;53.550;10.048;2022-07-23T11:21:45;25.60;40.00
1135;DHT22;556;53.550;10.048;2022-07-23T11:24:14;25.60;39.90
1135;DHT22;556;53.550;10.048;2022-07-23T11:26:44;25.60;39.90
1135;DHT22;556;53.550;10.048;2022-07-23T11:29:47;25.80;39.80
1135;DHT22;556;53.550;10.048;2022-07-23T11:32:32;26.00;39.00
1135;DHT22;556;53.550;10.048;2022-07-23T11:35:01;26.30;39.20
1135;DHT22;556;53.550;10.048;2022-07-23T11:37:35;26.40;38.20
1135;DHT22;556;53.550;10.048;2022-07-23T11:40:06;26.40;38.80
1135;DHT22;556;53.550;10.048;2022-07-23T11:42:36;26.30;38.60
1135;DHT22;556;53.550;10.048;2022-07-23T11:45:06;26.30;38.80
1135;DHT22;556;53.550;10.048;2022-07-23T11:47:34;26.20;38.70
1135;DHT22;556;53.550;10.048;2022-07-23T11:50:03;26.20;38.80
1135;DHT22;556;53.550;10.048;2022-07-23T11:52:32;26.20;38.80
1135;DHT22;556;53.550;10.048;2022-07-23T11:55:00;26.10;38.80
1135;DHT22;556;53.550;10.048;2022-07-23T11:57:29;26.00;38.80
1135;DHT22;556;53.550;10.048;2022-07-23T11:59:58;25.70;38.60
1135;DHT22;556;53.550;10.048;2022-07-23T12:02:29;25.40;38.90
1135;DHT22;556;53.550;10.048;2022-07-23T12:04:56;25.00;39.20
1135;DHT22;556;53.550;10.048;2022-07-23T12:07:32;24.80;39.50
1135;DHT22;556;53.550;10.048;2022-07-23T12:10:01;24.50;39.70
1135;DHT22;556;53.550;10.048;2022-07-23T12:12:35;24.20;40.00
1135;DHT22;556;53.550;10.048;2022-07-23T12:15:04;24.00;40.20
1135;DHT22;556;53.550;10.048;2022-07-23T12:17:35;24.00;40.40
1135;DHT22;556;53.550;10.048;2022-07-23T12:20:04;24.00;40.30
1135;DHT22;556;53.550;10.048;2022-07-23T12:22:35;24.10;40.30
1135;DHT22;556;53.550;10.048;2022-07-23T12:25:05;24.40;39.70
1135;DHT22;556;53.550;10.048;2022-07-23T12:27:33;24.50;40.10
1135;DHT22;556;53.550;10.048;2022-07-23T12:30:15;24.50;40.00
1135;DHT22;556;53.550;10.048;2022-07-23T12:32:45;24.40;40.20
1135;DHT22;556;53.550;10.048;2022-07-23T12:35:13;24.10;39.90
1135;DHT22;556;53.550;10.048;2022-07-23T12:37:41;24.20;40.40
1135;DHT22;556;53.550;10.048;2022-07-23T12:40:28;24.10;40.40
1135;DHT22;556;53.550;10.048;2022-07-23T12:42:57;24.00;40.00
1135;DHT22;556;53.550;10.048;2022-07-23T12:45:26;24.00;40.60
1135;DHT22;556;53.550;10.048;2022-07-23T12:48:03;24.20;40.60
1135;DHT22;556;53.550;10.048;2022-07-23T12:50:43;24.30;40.60
1135;DHT22;556;53.550;10.048;2022-07-23T12:53:15;24.50;40.60
1135;DHT22;556;53.550;10.048;2022-07-23T12:55:43;25.10;39.90
1135;DHT22;556;53.550;10.048;2022-07-23T12:58:14;25.50;40.20
1135;DHT22;556;53.550;10.048;2022-07-23T13:00:58;26.10;39.90
1135;DHT22;556;53.550;10.048;2022-07-23T13:03:29;26.70;38.90
1135;DHT22;556;53.550;10.048;2022-07-23T13:05:57;26.70;39.30
1135;DHT22;556;53.550;10.048;2022-07-23T13:08:25;26.70;39.00
1135;DHT22;556;53.550;10.048;2022-07-23T13:10:53;26.50;39.00
1135;DHT22;556;53.550;10.048;2022-07-23T13:13:21;26.50;39.00
1135;DHT22;556;53.550;10.048;2022-07-23T13:15:49;26.60;38.70
1135;DHT22;556;53.550;10.048;2022-07-23T13:18:17;26.40;38.40
1135;DHT22;556;53.550;10.048;2022-07-23T13:20:46;26.20;38.70
1135;DHT22;556;53.550;10.048;2022-07-23T13:23:14;26.10;38.70
1135;DHT22;556;53.550;10.048;2022-07-23T13:25:42;26.00;38.50
1135;DHT22;556;53.550;10.048;2022-07-23T13:28:09;26.20;38.50
1135;DHT22;556;53.550;10.048;2022-07-23T13:30:36;26.50;38.20
1135;DHT22;556;53.550;10.048;2022-07-23T13:33:03;26.80;37.30
1135;DHT22;556;53.550;10.048;2022-07-23T13:35:31;26.70;37.60
1135;DHT22;556;53.550;10.048;2022-07-23T13:38:00;26.70;37.60
1135;DHT22;556;53.550;10.048;2022-07-23T13:40:27;26.30;37.60
1135;DHT22;556;53.550;10.048;2022-07-23T13:42:54;26.20;37.90
1135;DHT22;556;53.550;10.048;2022-07-23T13:45:21;26.30;37.70
1135;DHT22;556;53.550;10.048;2022-07-23T13:47:49;26.40;37.60
1135;DHT22;556;53.550;10.048;2022-07-23T13:50:16;26.30;37.50
1135;DHT22;556;53.550;10.048;2022-07-23T13:52:43;26.20;37.60
1135;DHT22;556;53.550;10.048;2022-07-23T13:55:11;26.00;37.70
1135;DHT22;556;53.550;10.048;2022-07-23T13:57:38;25.80;37.80
1135;DHT22;556;53.550;10.048;2022-07-23T14:00:07;25.60;38.50
1135;DHT22;556;53.550;10.048;2022-07-23T14:02:39;25.60;38.10
1135;DHT22;556;53.550;10.048;2022-07-23T14:05:08;25.80;38.20
1135;DHT22;556;53.550;10.048;2022-07-23T14:07:36;26.10;38.10
1135;DHT22;556;53.550;10.048;2022-07-23T14:10:04;26.40;37.80
1135;DHT22;556;53.550;10.048;2022-07-23T14:12:33;26.70;37.50
1135;DHT22;556;53.550;10.048;2022-07-23T14:15:00;26.80;37.30
1135;DHT22;556;53.550;10.048;2022-07-23T14:17:28;26.60;37.00
1135;DHT22;556;53.550;10.048;2022-07-23T14:19:55;26.40;37.30
1135;DHT22;556;53.550;10.048;2022-07-23T14:22:25;26.00;37.50
1135;DHT22;556;53.550;10.048;2022-07-23T14:24:52;25.70;37.90
1135;DHT22;556;53.550;10.048;2022-07-23T14:27:19;25.60;38.10
1135;DHT22;556;53.550;10.048;2022-07-23T14:29:48;25.70;38.00
1135;DHT22;556;53.550;10.048;2022-07-23T14:32:15;26.10;37.90
1135;DHT22;556;53.550;10.048;2022-07-23T14:34:42;26.60;37.70
1135;DHT22;556;53.550;10.048;2022-07-23T14:37:09;27.10;37.40
1135;DHT22;556;53.550;10.048;2022-07-23T14:39:37;27.20;37.00
1135;DHT22;556;53.550;10.048;2022-07-23T14:42:05;27.20;36.80
1135;DHT22;556;53.550;10.048;2022-07-23T14:44:35;27.40;36.80
1135;DHT22;556;53.550;10.048;2022-07-23T14:47:05;27.50;36.50
1135;DHT22;556;53.550;10.048;2022-07-23T14:49:32;27.50;36.40
1135;DHT22;556;53.550;10.048;2022-07-23T14:52:00;27.20;36.20
1135;DHT22;556;53.550;10.048;2022-07-23T14:54:28;26.80;36.00
1135;DHT22;556;53.550;10.048;2022-07-23T14:56:57;26.70;36.60
1135;DHT22;556;53.550;10.048;2022-07-23T14:59:26;26.60;36.10
1135;DHT22;556;53.550;10.048;2022-07-23T15:01:53;26.50;36.50
1135;DHT22;556;53.550;10.048;2022-07-23T15:04:22;26.40;36.60
1135;DHT22;556;53.550;10.048;2022-07-23T15:06:49;26.20;37.30
1135;DHT22;556;53.550;10.048;2022-07-23T15:09:16;26.00;36.80
1135;DHT22;556;53.550;10.048;2022-07-23T15:11:44;26.00;36.80
1135;DHT22;556;53.550;10.048;2022-07-23T15:14:11;25.90;36.70
1135;DHT22;556;53.550;10.048;2022-07-23T15:16:38;25.80;36.40
1135;DHT22;556;53.550;10.048;2022-07-23T15:19:05;25.60;36.50
1135;DHT22;556;53.550;10.048;2022-07-23T15:21:34;25.60;37.00
1135;DHT22;556;53.550;10.048;2022-07-23T15:24:01;25.50;37.00
1135;DHT22;556;53.550;10.048;2022-07-23T15:26:29;25.40;37.20
1135;DHT22;556;53.550;10.048;2022-07-23T15:28:57;25.20;37.30
1135;DHT22;556;53.550;10.048;2022-07-23T15:31:25;25.20;37.40
1135;DHT22;556;53.550;10.048;2022-07-23T15:33:52;25.20;37.40
1135;DHT22;556;53.550;10.048;2022-07-23T15:36:20;25.10;36.90
1135;DHT22;556;53.550;10.048;2022-07-23T15:38:48;25.10;37.50
1135;DHT22;556;53.550;10.048;2022-07-23T15:41:16;25.00;37.10
1135;DHT22;556;53.550;10.048;2022-07-23T15:43:43;25.10;37.70
1135;DHT22;556;53.550;10.048;2022-07-23T15:46:10;25.10;37.60
1135;DHT22;556;53.550;10.048;2022-07-23T15:48:37;25.10;37.60
1135;DHT22;556;53.550;10.048;2022-07-23T15:51:05;25.10;37.60
1135;DHT22;556;53.550;10.048;2022-07-23T15:53:32;25.40;37.50
1135;DHT22;556;53.550;10.048;2022-07-23T15:56:01;26.60;36.60
1135;DHT22;556;53.550;10.048;2022-07-23T15:58:29;26.80;36.90
1135;DHT22;556;53.550;10.048;2022-07-23T16:00:56;27.10;36.60
1135;DHT22;556;53.550;10.048;2022-07-23T16:03:23;27.20;36.40
1135;DHT22;556;53.550;10.048;2022-07-23T16:05:50;27.30;36.30
1135;DHT22;556;53.550;10.048;2022-07-23T16:08:17;27.20;36.10
1135;DHT22;556;53.550;10.048;2022-07-23T16:10:44;27.20;36.10
1135;DHT22;556;53.550;10.048;2022-07-23T16:13:13;27.10;36.10
1135;DHT22;556;53.550;10.048;2022-07-23T16:15:40;27.30;36.10
1135;DHT22;556;53.550;10.048;2022-07-23T16:18:08;28.10;35.90
1135;DHT22;556;53.550;10.048;2022-07-23T16:20:36;29.10;35.30
1135;DHT22;556;53.550;10.048;2022-07-23T16:23:04;29.60;34.70